Time;durP1;ratioP1;P1;durP2;ratioP2;P2;SDS_P1;SDS_P2;PMS_P1;PMS_P2;Temp;Humidity;BMP_temperature;BMP_pressure;BME280_temperature;BME280_humidity;BME280_pressure;Samples;Min_cycle;Max_cycle;Signal;HPM_P1;HPM_P2
2022/09/07 00:01:50;;;;;;;6.78;4.55;;;;;;;20.19;68.42;96903.94;10563671;28;20076;-59
2022/09/07 00:07:10;;;;;;;6.95;5.05;;;;;;;20.18;68.38;96901.56;10547440;28;20105;-58
2022/09/07 00:12:29;;;;;;;6.53;4.85;;;;;;;20.18;68.40;96893.44;10543260;28;20411;-59
2022/09/07 00:17:48;;;;;;;6.55;4.50;;;;;;;20.18;68.36;96894.22;10545667;28;20176;-58
2022/09/07 00:23:07;;;;;;;6.80;4.75;;;;;;;20.19;68.39;96898.53;10542601;28;20060;-59
2022/09/07 00:28:27;;;;;;;6.35;4.72;;;;;;;20.18;68.30;96888.81;10530984;28;20040;-59
2022/09/07 00:33:48;;;;;;;6.90;4.20;;;;;;;20.18;68.38;96893.44;10550573;28;20043;-58
2022/09/07 00:39:07;;;;;;;6.50;4.72;;;;;;;20.18;68.37;96885.31;10550496;28;20048;-59
2022/09/07 00:44:42;;;;;;;6.63;4.55;;;;;;;20.19;68.21;96882.31;10532579;28;20070;-59
2022/09/07 00:50:05;;;;;;;5.35;4.25;;;;;;;20.17;68.30;96884.53;10541227;28;20047;-59
2022/09/07 00:55:26;;;;;;;6.55;4.53;;;;;;;20.17;68.15;96875.63;10539989;28;20052;-59
2022/09/07 01:00:46;;;;;;;5.32;4.82;;;;;;;20.15;68.02;96868.63;10539857;28;20492;-60
2022/09/07 01:06:15;;;;;;;6.53;5.00;;;;;;;20.15;68.00;96875.97;10514575;28;20403;-60
2022/09/07 01:11:35;;;;;;;6.10;5.15;;;;;;;20.15;67.82;96874.03;10552216;28;20048;-58
2022/09/07 01:17:00;;;;;;;5.93;4.90;;;;;;;20.14;67.75;96866.25;10540442;28;20071;-58
2022/09/07 01:22:52;;;;;;;5.40;4.90;;;;;;;20.13;67.52;96856.53;10539970;28;20502;-59
2022/09/07 01:28:24;;;;;;;5.13;4.63;;;;;;;20.14;67.39;96855.44;10526458;28;20518;-57
2022/09/07 01:33:59;;;;;;;5.35;4.85;;;;;;;20.13;67.27;96861.94;10540209;28;20057;-60
2022/09/07 01:39:18;;;;;;;4.90;4.50;;;;;;;20.14;67.13;96863.53;10524379;28;20063;-59
2022/09/07 01:44:56;;;;;;;7.07;5.22;;;;;;;20.12;66.97;96871.19;10539669;28;20056;-60
2022/09/07 01:50:20;;;;;;;5.75;5.20;;;;;;;20.13;66.80;96864.66;10516318;28;20099;-60
2022/09/07 01:55:44;;;;;;;4.75;4.18;;;;;;;20.13;66.75;96851.13;10529327;28;20055;-59
2022/09/07 02:01:11;;;;;;;4.90;4.43;;;;;;;20.12;66.74;96852.25;10537492;28;20056;-60
2022/09/07 02:06:53;;;;;;;4.85;4.45;;;;;;;20.14;66.78;96850.03;10534453;28;20056;-59
2022/09/07 02:12:35;;;;;;;5.20;4.70;;;;;;;20.14;66.78;96866.25;10538627;28;20109;-59
2022/09/07 02:18:02;;;;;;;4.82;4.43;;;;;;;20.14;66.83;96860.84;10538923;28;20044;-60
2022/09/07 02:23:25;;;;;;;5.05;4.65;;;;;;;20.12;66.78;96849.56;10525201;28;20060;-59
2022/09/07 02:28:44;;;;;;;5.00;4.50;;;;;;;20.13;66.90;96853.81;10532422;28;20399;-59
2022/09/07 02:34:04;;;;;;;4.78;4.28;;;;;;;20.13;66.78;96864.66;10537911;28;20105;-60
2022/09/07 02:39:23;;;;;;;4.70;4.28;;;;;;;20.12;66.89;96863.88;10537825;28;20055;-59
2022/09/07 02:44:45;;;;;;;5.03;4.25;;;;;;;20.12;66.81;96858.44;10547535;28;20454;-59
2022/09/07 02:50:26;;;;;;;4.57;4.18;;;;;;;20.12;66.88;96852.25;10537393;28;20059;-60
2022/09/07 02:55:57;;;;;;;4.30;4.00;;;;;;;20.13;66.80;96851.13;10555247;28;20040;-59
2022/09/07 03:01:35;;;;;;;4.95;4.50;;;;;;;20.11;66.85;96839.84;10522299;28;20052;-59
2022/09/07 03:07:02;;;;;;;4.60;4.20;;;;;;;20.12;66.88;96838.75;10522699;28;20056;-60
2022/09/07 03:12:21;;;;;;;4.75;4.30;;;;;;;20.12;66.91;96836.03;10533604;28;20070;-59
2022/09/07 03:17:42;;;;;;;4.43;4.07;;;;;;;20.12;66.91;96817.09;10537456;28;20121;-60
2022/09/07 03:23:01;;;;;;;4.50;4.10;;;;;;;20.12;66.93;96817.09;10537243;28;20085;-59
2022/09/07 03:28:20;;;;;;;4.30;4.00;;;;;;;20.13;66.96;96834.91;10558125;28;20402;-59
2022/09/07 03:33:40;;;;;;;4.45;4.05;;;;;;;20.11;66.82;96834.44;10558410;28;20047;-59
2022/09/07 03:39:00;;;;;;;4.75;4.35;;;;;;;20.11;66.87;96837.94;10557048;28;20491;-59
2022/09/07 03:44:19;;;;;;;4.57;4.18;;;;;;;20.12;66.84;96844.16;10571875;28;20040;-60
2022/09/07 03:49:39;;;;;;;4.25;3.90;;;;;;;20.10;66.85;96833.66;10584307;28;20482;-58
2022/09/07 03:54:58;;;;;;;4.65;4.30;;;;;;;20.11;66.93;96837.94;10560984;28;20047;-58
2022/09/07 04:00:17;;;;;;;4.78;4.10;;;;;;;20.11;66.86;96845.25;10574954;28;20056;-59
2022/09/07 04:05:36;;;;;;;4.25;3.95;;;;;;;20.10;66.90;96838.28;10589986;28;20040;-58
2022/09/07 04:10:57;;;;;;;6.22;4.65;;;;;;;20.10;66.88;96839.06;10572825;28;20101;-59
2022/09/07 04:16:21;;;;;;;4.95;4.55;;;;;;;20.10;66.94;96841.75;10571090;28;20055;-59
2022/09/07 04:21:45;;;;;;;5.40;4.90;;;;;;;20.11;67.03;96853.38;10575757;28;20420;-58
2022/09/07 04:27:05;;;;;;;4.43;4.03;;;;;;;20.10;67.02;96849.09;10563387;28;20120;-59
2022/09/07 04:32:24;;;;;;;4.82;4.38;;;;;;;20.11;67.20;96856.06;10580774;28;20471;-58
2022/09/07 04:37:44;;;;;;;4.18;3.88;;;;;;;20.12;67.35;96863.06;10580802;28;20044;-59
2022/09/07 04:43:04;;;;;;;4.97;4.53;;;;;;;20.12;67.30;96850.34;10580418;28;20059;-60
2022/09/07 04:48:23;;;;;;;4.82;4.50;;;;;;;20.11;67.23;96853.38;10558102;28;20052;-59
2022/09/07 04:53:43;;;;;;;5.75;4.50;;;;;;;20.11;67.16;96851.47;10547080;28;20063;-60
2022/09/07 04:59:02;;;;;;;5.22;4.72;;;;;;;20.12;67.33;96853.03;10540571;28;20051;-59
2022/09/07 05:04:21;;;;;;;4.30;4.00;;;;;;;20.13;67.08;96853.81;10568549;28;20059;-59
2022/09/07 05:09:41;;;;;;;5.40;4.90;;;;;;;20.12;66.74;96857.66;10585728;28;20055;-59
2022/09/07 05:15:01;;;;;;;14.20;8.00;;;;;;;20.08;65.64;96856.75;10580706;28;20063;-60
2022/09/07 05:20:20;;;;;;;12.77;5.80;;;;;;;20.06;65.45;96867.09;10593136;28;20402;-59
2022/09/07 05:25:44;;;;;;;8.18;5.80;;;;;;;20.05;65.78;96868.19;10539062;28;20051;-59
2022/09/07 05:31:15;;;;;;;10.52;6.53;;;;;;;20.07;65.89;96861.34;10565830;28;20076;-60
2022/09/07 05:36:35;;;;;;;11.73;6.78;;;;;;;20.08;65.82;96864.84;10550505;28;20133;-58
2022/09/07 05:41:54;;;;;;;11.88;7.20;;;;;;;20.08;66.00;96862.94;10572245;28;20100;-59
2022/09/07 05:47:14;;;;;;;11.55;6.78;;;;;;;20.09;66.12;96871.84;10535917;28;20051;-60
2022/09/07 05:52:34;;;;;;;12.50;7.07;;;;;;;20.09;66.14;96871.84;10567339;28;20087;-59
2022/09/07 05:57:53;;;;;;;9.80;7.05;;;;;;;20.09;66.26;96874.53;10570971;28;20087;-59
2022/09/07 06:03:13;;;;;;;11.60;6.72;;;;;;;20.09;66.20;96869.13;10557839;28;20059;-60
2022/09/07 06:08:34;;;;;;;11.05;7.03;;;;;;;20.10;66.18;96865.31;10550899;28;20448;-59
2022/09/07 06:13:54;;;;;;;11.65;7.07;;;;;;;20.08;66.25;96852.13;10575293;28;20392;-60
2022/09/07 06:19:13;;;;;;;10.02;6.70;;;;;;;20.10;66.25;96854.50;10552688;28;20040;-59
2022/09/07 06:24:33;;;;;;;10.55;6.93;;;;;;;20.09;66.27;96848.31;10550259;28;20055;-60
2022/09/07 06:29:52;;;;;;;12.10;7.05;;;;;;;20.10;66.36;96851.78;10554786;28;20406;-59
2022/09/07 06:35:13;;;;;;;8.93;6.80;;;;;;;20.10;66.35;96855.28;10557183;28;20056;-59
2022/09/07 06:40:33;;;;;;;10.48;6.75;;;;;;;20.09;66.14;96842.91;10549773;28;20514;-60
2022/09/07 06:45:55;;;;;;;9.85;6.90;;;;;;;20.10;66.38;96851.78;10563321;28;20414;-60
2022/09/07 06:51:19;;;;;;;11.20;6.40;;;;;;;20.10;66.48;96849.88;10556265;28;20048;-57
2022/09/07 06:56:38;;;;;;;9.10;6.40;;;;;;;20.10;66.37;96849.88;10555619;28;20048;-60
2022/09/07 07:01:57;;;;;;;8.77;6.70;;;;;;;20.11;66.38;96853.38;10581069;28;20475;-59
2022/09/07 07:07:17;;;;;;;9.77;7.13;;;;;;;20.12;66.33;96863.88;10568424;28;20097;-60
2022/09/07 07:12:36;;;;;;;11.95;7.28;;;;;;;20.10;66.34;96862.63;10567384;28;20055;-59
2022/09/07 07:17:56;;;;;;;12.43;7.20;;;;;;;20.12;66.38;96868.50;10581045;28;20054;-59
2022/09/07 07:23:15;;;;;;;7.43;6.65;;;;;;;20.12;66.42;96865.78;10566935;28;20064;-59
2022/09/07 07:28:35;;;;;;;7.13;6.22;;;;;;;20.14;66.38;96868.94;10581386;28;20051;-60
2022/09/07 07:33:54;;;;;;;9.00;6.78;;;;;;;20.13;66.45;96861.94;10560133;28;20525;-60
2022/09/07 07:39:14;;;;;;;9.55;6.90;;;;;;;20.13;66.41;96853.81;10559024;28;20059;-60
2022/09/07 07:44:33;;;;;;;10.13;6.50;;;;;;;20.13;66.41;96875.47;10561437;28;20055;-59
2022/09/07 07:49:53;;;;;;;8.73;6.95;;;;;;;20.12;66.50;96857.66;10544353;28;20048;-60
2022/09/07 07:55:13;;;;;;;7.72;6.18;;;;;;;20.13;66.46;96859.25;10566649;28;20063;-60
2022/09/07 08:00:33;;;;;;;8.73;6.43;;;;;;;20.14;66.43;96866.25;10557669;28;20060;-57
2022/09/07 08:05:53;;;;;;;9.10;6.20;;;;;;;20.12;66.42;96863.88;10555134;28;20043;-59
2022/09/07 08:11:16;;;;;;;9.13;6.80;;;;;;;20.14;66.53;96858.91;10569954;28;20048;-59
2022/09/07 08:16:36;;;;;;;9.38;6.22;;;;;;;20.13;66.54;96867.34;10555373;28;20055;-60
2022/09/07 08:21:55;;;;;;;9.38;6.38;;;;;;;20.15;66.58;96873.25;10547033;28;20048;-58
2022/09/07 08:27:18;;;;;;;6.45;5.30;;;;;;;20.15;66.45;96874.03;10557166;28;20052;-60
2022/09/07 08:32:37;;;;;;;9.15;5.95;;;;;;;20.15;66.56;96879.44;10572895;28;20055;-60
2022/09/07 08:37:56;;;;;;;8.20;6.10;;;;;;;20.14;66.58;96871.66;10561255;28;20094;-60
2022/09/07 08:43:16;;;;;;;10.05;6.75;;;;;;;20.15;66.51;96867.84;10594863;28;20395;-60
2022/09/07 08:48:36;;;;;;;8.52;6.30;;;;;;;20.15;66.53;96863.22;10559740;28;20406;-60
2022/09/07 08:53:56;;;;;;;9.15;5.97;;;;;;;20.15;66.54;96862.44;10562141;28;20043;-59
2022/09/07 08:59:39;;;;;;;8.95;6.07;;;;;;;20.16;66.63;96872.13;10566956;28;20043;-60
2022/09/07 09:04:59;;;;;;;7.20;5.40;;;;;;;20.15;66.51;96874.03;10536949;28;20055;-60
2022/09/07 09:10:28;;;;;;;7.47;6.10;;;;;;;20.16;66.64;96877.53;10579965;28;20050;-59
2022/09/07 09:15:52;;;;;;;7.15;5.78;;;;;;;20.17;66.68;96881.84;10531566;28;20048;-60
2022/09/07 09:21:14;;;;;;;7.55;5.85;;;;;;;20.17;66.61;96873.72;10540335;28;20067;-60
2022/09/07 09:26:34;;;;;;;6.57;5.60;;;;;;;20.18;66.63;96883.41;10590833;28;20047;-60
2022/09/07 09:31:55;;;;;;;7.20;5.75;;;;;;;20.17;66.62;96871.03;10563972;28;20044;-59
2022/09/07 09:37:32;;;;;;;6.63;5.63;;;;;;;20.19;66.63;96873.38;10587660;28;20044;-59
2022/09/07 09:43:03;;;;;;;6.70;5.78;;;;;;;20.18;66.60;96861.78;10570170;28;20288;-59
2022/09/07 09:48:31;;;;;;;6.65;5.50;;;;;;;20.19;66.62;96868.78;10516685;28;20052;-59
2022/09/07 09:53:57;;;;;;;6.68;5.45;;;;;;;20.19;66.67;96871.47;10563779;28;20491;-59
2022/09/07 09:59:16;;;;;;;6.20;5.40;;;;;;;20.18;66.63;96867.19;10545307;28;20104;-59
2022/09/07 10:04:35;;;;;;;6.47;5.40;;;;;;;20.19;66.72;96868.78;10575984;28;20043;-59
2022/09/07 10:09:55;;;;;;;5.55;4.88;;;;;;;20.20;66.71;96862.22;10561104;28;20039;-60
2022/09/07 10:15:30;;;;;;;8.45;5.47;;;;;;;20.19;66.73;96857.97;10562491;28;20055;-60
2022/09/07 10:20:49;;;;;;;5.78;5.18;;;;;;;20.20;66.72;96859.53;10539561;28;20051;-59
2022/09/07 10:26:33;;;;;;;5.60;4.95;;;;;;;20.22;66.77;96851.88;10556726;28;20059;-60
2022/09/07 10:31:58;;;;;;;5.80;5.20;;;;;;;20.20;66.87;96846.00;10553579;28;20050;-59
2022/09/07 10:37:32;;;;;;;5.78;5.18;;;;;;;20.22;66.80;96851.09;10552203;28;20051;-60
2022/09/07 10:42:59;;;;;;;6.13;4.93;;;;;;;20.20;66.91;96854.13;10555255;28;20063;-60
2022/09/07 10:48:24;;;;;;;6.43;5.15;;;;;;;20.22;66.91;96851.88;10556975;28;20052;-58
2022/09/07 10:54:12;;;;;;;5.55;5.00;;;;;;;20.22;66.89;96851.09;10555196;28;20052;-60
2022/09/07 10:59:34;;;;;;;6.28;5.05;;;;;;;20.23;66.94;96844.53;10568484;28;20066;-60
2022/09/07 11:05:32;;;;;;;6.13;4.95;;;;;;;20.23;66.95;96841.84;10566771;28;20051;-59
2022/09/07 11:11:05;;;;;;;5.65;4.97;;;;;;;20.23;66.94;96831.84;10561568;28;20117;-60
2022/09/07 11:16:28;;;;;;;5.47;4.93;;;;;;;20.23;66.78;96833.72;10528576;28;20062;-60
2022/09/07 11:22:04;;;;;;;5.88;5.25;;;;;;;20.23;66.85;96817.50;10564573;28;20047;-57
2022/09/07 11:27:32;;;;;;;5.47;4.70;;;;;;;20.23;66.89;96818.31;10569143;28;20035;-59
2022/09/07 11:32:58;;;;;;;5.72;4.97;;;;;;;20.23;66.89;96815.59;10566565;28;20058;-59
2022/09/07 11:38:32;;;;;;;5.50;4.68;;;;;;;20.23;66.92;96801.28;10548472;28;20441;-59
2022/09/07 11:44:23;;;;;;;5.18;4.68;;;;;;;20.23;66.95;96802.09;10567520;28;20042;-60
2022/09/07 11:49:43;;;;;;;5.03;4.50;;;;;;;20.24;67.02;96800.16;10559477;28;20044;-59
2022/09/07 11:55:10;;;;;;;5.55;4.63;;;;;;;20.24;67.02;96806.34;10564249;28;20142;-60
2022/09/07 12:00:48;;;;;;;5.13;4.50;;;;;;;20.25;66.93;96807.16;10568178;28;20048;-59
2022/09/07 12:06:43;;;;;;;5.05;4.40;;;;;;;20.25;67.06;96813.38;10554586;28;20070;-59
2022/09/07 12:12:11;;;;;;;5.10;4.60;;;;;;;20.24;66.96;96800.94;10557795;28;20053;-59
2022/09/07 12:17:34;;;;;;;5.03;4.53;;;;;;;20.25;66.95;96791.72;10521064;28;20052;-59
2022/09/07 12:22:55;;;;;;;4.90;4.43;;;;;;;20.25;66.92;96799.06;10556692;28;20054;-60
2022/09/07 12:28:35;;;;;;;5.20;4.70;;;;;;;20.26;67.06;96803.31;10557487;28;20104;-59
2022/09/07 12:34:32;;;;;;;5.80;4.80;;;;;;;20.26;67.08;96793.28;10518680;28;20051;-60
2022/09/07 12:40:33;;;;;;;5.07;4.50;;;;;;;20.25;67.00;96783.59;10567885;28;20064;-59
2022/09/07 12:45:55;;;;;;;5.05;4.55;;;;;;;20.26;67.04;96774.34;10497971;28;20048;-60
2022/09/07 12:51:35;;;;;;;5.72;4.80;;;;;;;20.26;67.12;96770.88;10566354;28;20051;-59
2022/09/07 12:57:08;;;;;;;5.25;4.43;;;;;;;20.26;66.91;96765.47;10567151;28;20494;-59
2022/09/07 13:02:41;;;;;;;4.47;4.07;;;;;;;20.26;66.97;96766.25;10540347;28;20059;-59
2022/09/07 13:08:33;;;;;;;4.63;4.22;;;;;;;20.27;66.88;96761.66;10560925;28;20043;-59
2022/09/07 13:13:59;;;;;;;4.50;4.10;;;;;;;20.27;67.06;96748.13;10527189;28;20054;-59
2022/09/07 13:19:44;;;;;;;5.57;4.70;;;;;;;20.28;67.01;96757.81;10551135;28;20058;-60
2022/09/07 13:25:20;;;;;;;4.43;4.03;;;;;;;20.28;66.99;96753.19;10553674;28;20100;-60
2022/09/07 13:30:44;;;;;;;4.47;4.07;;;;;;;20.28;67.00;96747.78;10577237;28;20050;-60
2022/09/07 13:36:04;;;;;;;4.70;4.10;;;;;;;20.29;67.03;96754.78;10559417;28;20051;-60
2022/09/07 13:41:34;;;;;;;4.57;4.18;;;;;;;20.29;67.06;96748.59;10529381;28;20055;-60
2022/09/07 13:47:19;;;;;;;4.80;4.05;;;;;;;20.30;66.98;96745.53;10538365;28;20406;-60
2022/09/07 13:53:00;;;;;;;4.32;3.97;;;;;;;20.30;67.10;96733.91;10538110;28;20055;-60
2022/09/07 13:58:28;;;;;;;4.97;4.40;;;;;;;20.30;66.96;96744.75;10536196;28;20480;-59
2022/09/07 14:03:58;;;;;;;4.73;4.30;;;;;;;20.29;67.02;96733.13;10559822;28;20051;-60
2022/09/07 14:09:20;;;;;;;4.63;4.05;;;;;;;20.31;67.14;96724.69;10550528;28;20043;-60
2022/09/07 14:14:40;;;;;;;4.43;4.03;;;;;;;20.31;67.00;96716.56;10538902;28;20048;-60
2022/09/07 14:19:59;;;;;;;4.38;4.00;;;;;;;20.31;67.01;96720.06;10551251;28;20480;-60
2022/09/07 14:25:21;;;;;;;4.85;4.38;;;;;;;20.31;67.03;96711.16;10523089;28;20051;-59
2022/09/07 14:30:40;;;;;;;4.28;3.95;;;;;;;20.30;67.04;96715.75;10531682;28;20047;-60
2022/09/07 14:36:00;;;;;;;4.35;3.90;;;;;;;20.31;67.01;96705.75;10531246;28;20054;-58
2022/09/07 14:41:20;;;;;;;4.20;3.80;;;;;;;20.30;67.04;96704.94;10519778;28;20407;-59
2022/09/07 14:46:45;;;;;;;4.50;4.10;;;;;;;20.32;67.22;96704.63;10551272;28;20067;-60
2022/09/07 14:52:05;;;;;;;4.03;3.70;;;;;;;20.31;67.12;96706.53;10509686;28;20045;-59
2022/09/07 14:57:29;;;;;;;3.92;3.63;;;;;;;20.32;67.10;96693.78;10537268;28;20059;-60
2022/09/07 15:02:48;;;;;;;4.07;3.75;;;;;;;20.32;67.06;96683.75;10537921;28;20051;-59
2022/09/07 15:08:18;;;;;;;4.15;3.75;;;;;;;20.32;67.08;96683.75;10548959;28;20060;-60
2022/09/07 15:13:40;;;;;;;3.88;3.58;;;;;;;20.35;67.04;96693.94;10537572;28;20056;-59
2022/09/07 15:19:01;;;;;;;4.50;4.00;;;;;;;20.35;67.24;96683.09;10537132;28;20056;-58
2022/09/07 15:24:20;;;;;;;4.30;3.90;;;;;;;20.38;67.15;96678.94;10550299;28;20056;-59
2022/09/07 15:29:39;;;;;;;4.45;4.00;;;;;;;20.37;67.12;96663.84;10557064;28;20055;-60
2022/09/07 15:34:59;;;;;;;4.28;3.88;;;;;;;20.40;67.16;96665.09;10545173;28;20048;-59
2022/09/07 15:40:21;;;;;;;3.97;3.67;;;;;;;20.41;67.20;96655.84;10568954;28;20062;-57
2022/09/07 15:45:40;;;;;;;4.18;3.78;;;;;;;20.42;67.23;96652.00;10563350;28;20052;-60
2022/09/07 15:51:05;;;;;;;4.07;3.67;;;;;;;20.42;67.20;96636.56;10538824;28;20082;-58
2022/09/07 15:56:25;;;;;;;3.90;3.45;;;;;;;20.44;67.21;96631.59;10567825;28;20051;-59
2022/09/07 16:01:44;;;;;;;4.18;3.78;;;;;;;20.45;67.27;96627.00;10579052;28;20044;-60
2022/09/07 16:07:04;;;;;;;4.82;3.88;;;;;;;20.44;67.30;96630.81;10591205;28;20050;-60
2022/09/07 16:12:23;;;;;;;3.90;3.60;;;;;;;20.45;67.33;96621.59;10582464;28;20047;-59
2022/09/07 16:17:42;;;;;;;4.90;3.42;;;;;;;20.45;67.29;96619.69;10561459;28;20495;-60
2022/09/07 16:23:02;;;;;;;3.67;3.38;;;;;;;20.46;67.24;96642.09;10585360;28;20143;-59
2022/09/07 16:28:21;;;;;;;3.72;3.42;;;;;;;20.47;67.31;96649.09;10593314;28;20050;-59
2022/09/07 16:33:41;;;;;;;3.75;3.30;;;;;;;20.44;67.08;96644.34;10566971;28;20492;-60
2022/09/07 16:39:00;;;;;;;3.67;3.38;;;;;;;20.44;67.15;96647.06;10563890;28;20056;-59
2022/09/07 16:44:19;;;;;;;3.60;3.30;;;;;;;20.43;67.18;96642.78;10542163;28;20070;-60
2022/09/07 16:49:39;;;;;;;4.45;3.42;;;;;;;20.45;67.20;96632.41;10541893;28;20082;-60
2022/09/07 16:54:58;;;;;;;4.53;3.50;;;;;;;20.45;67.35;96629.72;10549449;28;20134;-60
2022/09/07 17:00:18;;;;;;;6.50;3.85;;;;;;;20.44;67.40;96637.03;10541193;28;20075;-60
2022/09/07 17:05:40;;;;;;;5.13;3.80;;;;;;;20.45;68.09;96630.50;10566017;28;20040;-57
2022/09/07 17:11:01;;;;;;;5.75;4.00;;;;;;;20.45;68.72;96637.84;10540840;28;20052;-58
2022/09/07 17:16:25;;;;;;;4.38;3.75;;;;;;;20.43;69.01;96624.63;10540358;28;20501;-56
2022/09/07 17:21:45;;;;;;;4.40;3.75;;;;;;;20.44;69.19;96642.44;10540415;28;20044;-58
2022/09/07 17:27:04;;;;;;;5.30;4.00;;;;;;;20.43;69.42;96640.09;10540292;28;20105;-58
2022/09/07 17:32:26;;;;;;;4.18;3.70;;;;;;;20.41;69.57;96637.69;10540233;28;20051;-57
2022/09/07 17:37:45;;;;;;;4.90;3.67;;;;;;;20.40;69.57;96646.94;10539932;28;20052;-57
2022/09/07 17:43:04;;;;;;;6.00;3.90;;;;;;;20.40;69.60;96654.25;10538659;28;20059;-57
2022/09/07 17:48:24;;;;;;;5.10;3.70;;;;;;;20.37;69.56;96636.00;10545129;28;20101;-57
2022/09/07 17:53:44;;;;;;;4.93;4.00;;;;;;;20.35;69.37;96641.75;10539657;28;20056;-55
2022/09/07 17:59:03;;;;;;;3.97;3.58;;;;;;;20.36;69.12;96662.25;10552689;28;20043;-59
2022/09/07 18:04:23;;;;;;;6.25;3.63;;;;;;;20.38;68.90;96660.00;10527307;28;20082;-58
2022/09/07 18:09:42;;;;;;;9.40;6.10;;;;;;;20.38;68.86;96668.13;10525940;28;20056;-60
2022/09/07 18:15:01;;;;;;;6.25;4.35;;;;;;;20.39;68.65;96677.84;10544416;28;20119;-59
2022/09/07 18:20:22;;;;;;;11.13;4.43;;;;;;;20.39;68.61;96660.81;10559924;28;20089;-60
2022/09/07 18:25:42;;;;;;;6.38;4.57;;;;;;;20.41;68.71;96669.38;10541509;28;20055;-57
2022/09/07 18:31:06;;;;;;;5.20;3.95;;;;;;;20.42;68.81;96666.31;10537889;28;20052;-58
2022/09/07 18:36:26;;;;;;;5.90;4.05;;;;;;;20.42;68.54;96654.72;10538604;28;20058;-58
2022/09/07 18:41:46;;;;;;;5.18;4.38;;;;;;;20.42;68.71;96660.13;10571440;28;20059;-59
2022/09/07 18:47:07;;;;;;;9.30;4.28;;;;;;;20.43;68.68;96653.59;10567676;28;20058;-57
2022/09/07 18:52:27;;;;;;;9.27;4.57;;;;;;;20.42;68.68;96647.38;10569433;28;20503;-59
2022/09/07 18:57:46;;;;;;;5.43;4.75;;;;;;;20.42;68.55;96657.44;10562493;28;20111;-59
2022/09/07 19:03:06;;;;;;;7.88;4.60;;;;;;;20.42;68.44;96650.09;10572401;28;20052;-55
2022/09/07 19:08:29;;;;;;;8.93;4.38;;;;;;;20.42;68.32;96662.84;10552626;28;20056;-56
2022/09/07 19:14:02;;;;;;;7.63;4.32;;;;;;;20.42;68.17;96654.72;10554752;28;20452;-57
2022/09/07 19:19:23;;;;;;;6.35;4.32;;;;;;;20.40;68.07;96655.03;10584727;28;20048;-57
2022/09/07 19:24:42;;;;;;;7.32;4.32;;;;;;;20.41;68.00;96647.75;10573115;28;20153;-56
2022/09/07 19:30:02;;;;;;;7.20;4.10;;;;;;;20.41;68.12;96653.94;10596692;28;20232;-56
2022/09/07 19:35:22;;;;;;;5.15;4.13;;;;;;;20.40;68.09;96657.75;10584263;28;20059;-56
2022/09/07 19:40:41;;;;;;;4.82;3.97;;;;;;;20.41;68.24;96651.22;10551826;28;20499;-56
2022/09/07 19:46:03;;;;;;;5.22;4.28;;;;;;;20.41;68.12;96642.34;10566906;28;20070;-56
2022/09/07 19:51:23;;;;;;;4.85;3.88;;;;;;;20.41;68.12;96635.00;10548218;28;20422;-58
2022/09/07 19:56:43;;;;;;;5.75;3.92;;;;;;;20.41;68.26;96628.81;10544427;28;20059;-59
2022/09/07 20:02:02;;;;;;;7.45;4.22;;;;;;;20.43;68.41;96623.84;10529431;28;20052;-60
2022/09/07 20:07:22;;;;;;;5.45;3.95;;;;;;;20.44;68.55;96622.72;10540040;28;20491;-59
2022/09/07 20:12:41;;;;;;;5.68;4.15;;;;;;;20.42;68.62;96612.22;10542799;28;20051;-55
2022/09/07 20:18:01;;;;;;;4.47;3.60;;;;;;;20.43;68.49;96610.31;10543638;28;20052;-59
2022/09/07 20:23:20;;;;;;;4.63;3.75;;;;;;;20.44;68.56;96611.88;10536302;28;20052;-59
2022/09/07 20:28:41;;;;;;;4.68;3.83;;;;;;;20.45;68.58;96599.94;10535165;28;20487;-60
2022/09/07 20:34:01;;;;;;;4.55;3.88;;;;;;;20.43;68.73;96599.50;10556296;28;20540;-59
2022/09/07 20:39:20;;;;;;;5.32;3.80;;;;;;;20.43;68.46;96597.56;10549291;28;20393;-58
2022/09/07 20:44:40;;;;;;;4.88;3.70;;;;;;;20.44;68.66;96596.44;10569240;28;20079;-60
2022/09/07 20:49:59;;;;;;;4.47;3.50;;;;;;;20.44;68.53;96601.84;10548918;28;20052;-58
2022/09/07 20:55:19;;;;;;;5.80;3.40;;;;;;;20.44;68.69;96601.06;10570587;28;20047;-60
2022/09/07 21:00:38;;;;;;;4.25;3.53;;;;;;;20.43;68.66;96602.97;10582038;28;20410;-59
2022/09/07 21:06:02;;;;;;;6.05;3.67;;;;;;;20.43;68.65;96597.56;10560862;28;20056;-58
2022/09/07 21:11:30;;;;;;;6.10;3.80;;;;;;;20.43;68.69;96596.78;10572269;28;20048;-59
2022/09/07 21:16:49;;;;;;;3.93;3.33;;;;;;;20.44;68.50;96612.66;10528996;28;20055;-59
2022/09/07 21:22:08;;;;;;;3.88;3.47;;;;;;;20.44;68.54;96604.53;10574568;28;20048;-59
2022/09/07 21:27:29;;;;;;;3.78;3.40;;;;;;;20.44;68.72;96603.75;10561477;28;20055;-60
2022/09/07 21:32:50;;;;;;;4.05;3.50;;;;;;;20.44;68.66;96596.44;10554301;28;20043;-59
2022/09/07 21:38:09;;;;;;;3.78;3.40;;;;;;;20.43;68.61;96585.97;10578464;28;20044;-59
2022/09/07 21:43:28;;;;;;;4.40;3.25;;;;;;;20.44;68.72;96584.81;10570694;28;20047;-59
2022/09/07 21:48:48;;;;;;;4.32;3.58;;;;;;;20.45;68.66;96583.72;10565062;28;20108;-59
2022/09/07 21:54:07;;;;;;;4.00;3.60;;;;;;;20.44;68.78;96576.72;10541067;28;20055;-59
2022/09/07 21:59:26;;;;;;;4.32;3.38;;;;;;;20.44;68.67;96571.28;10549737;28;20044;-59
2022/09/07 22:04:46;;;;;;;5.32;3.38;;;;;;;20.44;68.80;96579.41;10556920;28;20055;-60
2022/09/07 22:10:07;;;;;;;4.25;3.58;;;;;;;20.43;68.65;96575.16;10562665;28;20048;-59
2022/09/07 22:15:27;;;;;;;4.28;3.42;;;;;;;20.44;68.63;96576.72;10583121;28;20384;-57
2022/09/07 22:20:46;;;;;;;3.42;3.13;;;;;;;20.44;68.60;96569.38;10583225;28;20044;-59
2022/09/07 22:26:06;;;;;;;3.70;3.40;;;;;;;20.44;68.61;96552.34;10558176;28;20054;-59
2022/09/07 22:31:30;;;;;;;3.72;3.33;;;;;;;20.44;68.61;96555.06;10575170;28;20047;-60
2022/09/07 22:36:50;;;;;;;3.35;3.05;;;;;;;20.44;68.60;96547.72;10548634;28;20494;-59
2022/09/07 22:42:09;;;;;;;3.75;3.22;;;;;;;20.43;68.50;96534.56;10577215;28;20632;-60
2022/09/07 22:47:30;;;;;;;3.72;3.35;;;;;;;20.44;68.52;96536.13;10558725;28;20135;-59
2022/09/07 22:52:50;;;;;;;3.53;3.22;;;;;;;20.44;68.50;96525.28;10554447;28;20059;-60
2022/09/07 22:58:09;;;;;;;3.65;3.35;;;;;;;20.44;68.55;96519.88;10572486;28;20051;-60
2022/09/07 23:03:30;;;;;;;3.60;3.30;;;;;;;20.43;68.38;96510.22;10570337;28;20105;-59
2022/09/07 23:08:50;;;;;;;3.53;3.22;;;;;;;20.44;68.54;96509.06;10564468;28;20117;-57
2022/09/07 23:14:16;;;;;;;3.90;3.22;;;;;;;20.43;68.37;96502.09;10589978;28;20069;-59
2022/09/07 23:19:35;;;;;;;3.40;3.10;;;;;;;20.43;68.36;96499.38;10575752;28;20395;-60
2022/09/07 23:24:55;;;;;;;3.50;3.20;;;;;;;20.43;68.49;96493.97;10550230;28;20039;-57
2022/09/07 23:30:14;;;;;;;5.03;3.40;;;;;;;20.42;68.43;96487.75;10576107;28;20048;-59
2022/09/07 23:35:34;;;;;;;3.40;3.10;;;;;;;20.43;68.37;96483.16;10570666;28;20044;-59
2022/09/07 23:40:54;;;;;;;4.45;3.00;;;;;;;20.44;68.35;96484.72;10535073;28;20063;-59
2022/09/07 23:46:13;;;;;;;3.70;3.17;;;;;;;20.43;68.29;96481.22;10555747;28;20411;-59
2022/09/07 23:51:33;;;;;;;4.28;3.30;;;;;;;20.42;68.42;96476.94;10544457;28;20048;-59
2022/09/07 23:56:53;;;;;;;4.38;3.05;;;;;;;20.42;68.22;96479.63;10536173;28;20063;-59
